createdAt,value
2023-04-15T00:02:00.237Z,10.10
2023-04-15T00:04:27.796Z,10.02
2023-04-15T00:06:54.893Z,10.05
2023-04-15T00:09:21.863Z,10.01
2023-04-15T00:11:48.513Z,10.01
2023-04-15T00:14:15.583Z,9.99
2023-04-15T00:16:42.158Z,10.00
2023-04-15T00:19:08.810Z,9.96
2023-04-15T00:21:35.824Z,9.89
2023-04-15T00:24:02.460Z,9.98
2023-04-15T00:26:29.092Z,9.91
2023-04-15T00:28:55.662Z,9.97
2023-04-15T00:31:23.210Z,9.91
2023-04-15T00:33:49.953Z,9.90
2023-04-15T00:36:16.484Z,9.86
2023-04-15T00:38:42.981Z,9.86
2023-04-15T00:41:10.809Z,9.85
2023-04-15T00:43:37.418Z,10.05
2023-04-15T00:46:06.120Z,9.98
2023-04-15T00:48:32.836Z,10.20
2023-04-15T00:50:59.726Z,9.95
2023-04-15T00:53:26.492Z,10.07
2023-04-15T00:55:53.999Z,10.07
2023-04-15T00:58:20.608Z,10.16
2023-04-15T01:00:47.953Z,10.20
2023-04-15T01:03:15.632Z,10.17
2023-04-15T01:05:42.388Z,10.19
2023-04-15T01:08:09.792Z,10.08
2023-04-15T01:10:36.712Z,10.02
2023-04-15T01:13:04.021Z,10.29
2023-04-15T01:15:31.509Z,10.52
2023-04-15T01:17:59.623Z,10.22
2023-04-15T01:20:26.332Z,10.33
2023-04-15T01:22:54.974Z,10.31
2023-04-15T01:25:33.007Z,10.58
2023-04-15T01:27:59.932Z,10.53
2023-04-15T01:30:29.942Z,10.60
2023-04-15T01:32:56.684Z,10.50
2023-04-15T01:35:24.018Z,10.23
2023-04-15T01:37:51.291Z,10.09
2023-04-15T01:40:17.832Z,10.36
2023-04-15T01:42:44.566Z,10.09
2023-04-15T01:45:11.484Z,9.89
2023-04-15T01:47:38.105Z,10.00
2023-04-15T01:50:05.158Z,10.05
2023-04-15T01:52:32.249Z,10.15
2023-04-15T01:54:58.863Z,10.01
2023-04-15T01:57:25.383Z,9.97
2023-04-15T01:59:52.095Z,10.01
2023-04-15T02:02:18.717Z,9.95
2023-04-15T02:04:45.507Z,9.84
2023-04-15T02:07:12.205Z,9.93
2023-04-15T02:09:39.248Z,9.88
2023-04-15T02:12:06.205Z,9.92
2023-04-15T02:14:32.698Z,9.96
2023-04-15T02:17:07.076Z,9.99
2023-04-15T02:19:34.525Z,10.15
2023-04-15T02:22:02.185Z,10.03
2023-04-15T02:24:30.601Z,10.05
2023-04-15T02:26:57.404Z,9.88
2023-04-15T02:29:24.058Z,9.87
2023-04-15T02:31:51.164Z,9.88
2023-04-15T02:34:17.903Z,9.73
2023-04-15T02:36:44.535Z,9.65
2023-04-15T02:39:12.813Z,9.76
2023-04-15T02:41:39.676Z,9.82
2023-04-15T02:44:07.311Z,9.87
2023-04-15T02:46:33.902Z,9.83
2023-04-15T02:49:00.662Z,9.76
2023-04-15T02:51:33.909Z,9.87
2023-04-15T02:54:01.598Z,9.85
2023-04-15T02:56:28.144Z,10.07
2023-04-15T02:58:56.408Z,10.11
2023-04-15T03:01:23.043Z,10.01
2023-04-15T03:04:49.336Z,10.05
2023-04-15T03:07:15.976Z,9.99
2023-04-15T03:09:42.848Z,9.72
2023-04-15T03:12:09.401Z,10.04
2023-04-15T03:14:36.012Z,10.13
2023-04-15T03:17:02.658Z,9.71
2023-04-15T03:19:29.195Z,9.66
2023-04-15T03:21:55.998Z,9.70
2023-04-15T03:24:22.681Z,9.54
2023-04-15T03:26:49.240Z,9.38
2023-04-15T03:29:15.876Z,9.39
2023-04-15T03:31:42.550Z,9.33
2023-04-15T03:34:09.057Z,9.43
2023-04-15T03:36:35.652Z,9.31
2023-04-15T03:39:02.515Z,9.53
2023-04-15T03:41:29.247Z,9.59
2023-04-15T03:43:55.840Z,9.51
2023-04-15T03:46:22.425Z,9.42
2023-04-15T03:48:49.051Z,9.34
2023-04-15T03:51:15.708Z,9.41
2023-04-15T03:53:42.409Z,9.58
2023-04-15T03:56:08.960Z,9.22
2023-04-15T03:58:35.904Z,9.22
2023-04-15T04:01:02.540Z,9.21
2023-04-15T04:03:29.223Z,9.24
2023-04-15T04:05:56.338Z,9.25
2023-04-15T04:08:22.885Z,9.28
2023-04-15T04:10:49.526Z,9.48
2023-04-15T04:13:16.424Z,9.49
2023-04-15T04:15:42.962Z,9.44
2023-04-15T04:18:09.712Z,9.20
2023-04-15T04:20:36.422Z,9.49
2023-04-15T04:23:03.060Z,9.29
2023-04-15T04:25:29.776Z,9.20
2023-04-15T04:27:56.455Z,9.10
2023-04-15T04:30:23.233Z,9.23
2023-04-15T04:32:51.124Z,9.42
2023-04-15T04:35:17.722Z,9.43
2023-04-15T04:37:44.257Z,9.42
2023-04-15T04:40:11.400Z,9.38
2023-04-15T04:42:39.844Z,9.37
2023-04-15T04:45:07.459Z,9.53
2023-04-15T04:47:34.082Z,9.50
2023-04-15T04:50:00.877Z,9.38
2023-04-15T04:52:27.484Z,9.32
2023-04-15T04:54:54.172Z,9.30
2023-04-15T04:57:20.879Z,9.34
2023-04-15T04:59:47.611Z,9.39
2023-04-15T05:02:14.261Z,9.64
2023-04-15T05:04:41.870Z,9.70
2023-04-15T05:07:08.575Z,9.68
2023-04-15T05:09:36.707Z,9.59
2023-04-15T05:12:06.306Z,9.81
2023-04-15T05:14:33.314Z,9.64
2023-04-15T05:16:59.866Z,9.76
2023-04-15T05:19:26.494Z,9.56
2023-04-15T05:21:53.187Z,9.54
2023-04-15T05:24:19.808Z,9.52
2023-04-15T05:26:46.450Z,9.78
2023-04-15T05:29:13.060Z,9.72
2023-04-15T05:31:39.690Z,9.62
2023-04-15T05:34:07.197Z,9.83
2023-04-15T05:36:33.727Z,9.27
2023-04-15T05:39:00.976Z,9.32
2023-04-15T05:41:27.831Z,9.48
2023-04-15T05:43:54.382Z,9.38
2023-04-15T05:46:21.279Z,9.39
2023-04-15T05:48:47.869Z,9.34
2023-04-15T05:51:14.750Z,9.61
2023-04-15T05:53:41.885Z,9.86
2023-04-15T05:56:08.505Z,10.10
2023-04-15T05:58:35.071Z,9.97
2023-04-15T06:01:02.548Z,9.94
2023-04-15T06:03:29.654Z,10.02
2023-04-15T06:05:56.508Z,9.43
2023-04-15T06:08:22.987Z,9.97
2023-04-15T06:10:49.525Z,10.02
2023-04-15T06:13:17.114Z,9.88
2023-04-15T06:15:43.922Z,9.85
2023-04-15T06:18:11.696Z,9.99
2023-04-15T06:20:38.728Z,9.62
2023-04-15T06:23:05.397Z,9.69
2023-04-15T06:25:31.925Z,9.73
2023-04-15T06:27:58.436Z,9.71
2023-04-15T06:30:24.940Z,9.95
2023-04-15T06:32:51.767Z,9.87
2023-04-15T06:35:18.492Z,9.91
2023-04-15T06:37:45.042Z,10.07
2023-04-15T06:40:12.007Z,10.20
2023-04-15T06:42:38.542Z,10.26
2023-04-15T06:45:05.706Z,10.17
2023-04-15T06:47:32.423Z,9.83
2023-04-15T06:49:59.066Z,10.24
2023-04-15T06:52:25.593Z,10.74
2023-04-15T06:54:52.134Z,10.19
2023-04-15T06:57:18.679Z,10.81
2023-04-15T06:59:45.466Z,10.55
2023-04-15T07:02:14.488Z,10.34
2023-04-15T07:04:41.146Z,9.70
2023-04-15T07:07:08.117Z,10.55
2023-04-15T07:09:34.702Z,10.91
2023-04-15T07:12:01.255Z,10.97
2023-04-15T07:14:28.010Z,10.60
2023-04-15T07:16:54.726Z,10.05
2023-04-15T07:19:21.925Z,10.26
2023-04-15T07:21:48.496Z,10.85
2023-04-15T07:24:18.215Z,10.78
2023-04-15T07:26:45.195Z,10.23
2023-04-15T07:29:12.039Z,10.70
2023-04-15T07:31:40.074Z,10.82
2023-04-15T07:34:07.256Z,10.63
2023-04-15T07:36:33.825Z,11.04
2023-04-15T07:39:02.335Z,11.33
2023-04-15T07:41:30.640Z,11.69
2023-04-15T07:43:57.294Z,11.83
2023-04-15T07:46:27.514Z,11.61
2023-04-15T07:48:54.493Z,11.76
2023-04-15T07:51:21.357Z,11.66
2023-04-15T07:53:50.464Z,11.95
2023-04-15T07:56:17.184Z,12.53
2023-04-15T07:58:43.709Z,11.72
2023-04-15T08:01:10.287Z,11.60
2023-04-15T08:03:37.209Z,11.35
2023-04-15T08:06:04.047Z,10.70
2023-04-15T08:08:35.437Z,11.12
2023-04-15T08:11:02.200Z,11.33
2023-04-15T08:13:28.858Z,11.02
2023-04-15T08:16:14.345Z,11.59
2023-04-15T08:18:42.248Z,11.48
2023-04-15T08:21:09.442Z,11.50
2023-04-15T08:23:36.252Z,11.86
2023-04-15T08:26:02.886Z,12.35
2023-04-15T08:28:29.743Z,12.24
2023-04-15T08:30:56.691Z,12.40
2023-04-15T08:33:25.906Z,12.38
2023-04-15T08:35:52.939Z,12.39
2023-04-15T08:38:19.579Z,12.55
2023-04-15T08:40:46.735Z,11.92
2023-04-15T08:43:22.692Z,11.70
2023-04-15T08:45:52.654Z,11.24
2023-04-15T08:48:19.657Z,11.31
2023-04-15T08:50:48.036Z,11.04
2023-04-15T08:53:15.632Z,10.89
2023-04-15T08:55:47.672Z,10.94
2023-04-15T08:58:19.153Z,11.45
2023-04-15T09:00:46.009Z,12.22
2023-04-15T09:03:12.808Z,11.98
2023-04-15T09:05:39.396Z,12.96
2023-04-15T09:08:06.040Z,13.73
2023-04-15T09:10:38.616Z,13.35
2023-04-15T09:13:05.241Z,13.29
2023-04-15T09:15:33.215Z,12.91
2023-04-15T09:17:59.744Z,12.88
2023-04-15T09:20:26.457Z,12.26
2023-04-15T09:23:07.604Z,12.22
2023-04-15T09:25:35.047Z,12.40
2023-04-15T09:28:02.392Z,11.77
2023-04-15T09:30:29.652Z,11.70
2023-04-15T09:33:01.719Z,11.78
2023-04-15T09:35:28.976Z,12.41
2023-04-15T09:38:04.299Z,12.50
2023-04-15T09:40:36.416Z,12.40
2023-04-15T09:43:15.166Z,12.57
2023-04-15T09:45:52.498Z,12.04
2023-04-15T09:48:29.070Z,11.91
2023-04-15T09:50:58.881Z,12.03
2023-04-15T09:53:26.671Z,11.82
2023-04-15T09:55:55.919Z,11.71
2023-04-15T09:58:24.649Z,12.50
2023-04-15T10:00:52.911Z,12.16
2023-04-15T10:03:22.076Z,12.48
2023-04-15T10:05:50.876Z,12.01
2023-04-15T10:08:22.469Z,11.57
2023-04-15T10:10:49.675Z,12.12
2023-04-15T10:13:19.668Z,11.56
2023-04-15T10:15:56.885Z,11.23
2023-04-15T10:18:26.515Z,11.09
2023-04-15T10:20:54.036Z,11.02
2023-04-15T10:23:22.760Z,11.19
2023-04-15T10:25:51.029Z,11.33
2023-04-15T10:28:17.872Z,11.03
2023-04-15T10:30:44.770Z,10.91
2023-04-15T10:33:11.764Z,10.77
2023-04-15T10:35:39.735Z,11.24
2023-04-15T10:38:40.995Z,11.57
2023-04-15T10:41:34.621Z,10.92
2023-04-15T10:44:07.850Z,10.71
2023-04-15T10:47:04.548Z,10.97
2023-04-15T10:49:31.260Z,10.70
2023-04-15T10:52:00.004Z,11.14
2023-04-15T10:54:26.553Z,11.47
2023-04-15T10:57:09.828Z,10.78
2023-04-15T10:59:58.324Z,11.29
2023-04-15T11:02:44.155Z,11.49
2023-04-15T11:05:12.566Z,11.90
2023-04-15T11:07:53.280Z,12.30
2023-04-15T11:10:26.335Z,12.07
2023-04-15T11:13:04.743Z,12.30
2023-04-15T11:15:43.063Z,12.12
2023-04-15T11:18:09.607Z,12.62
2023-04-15T11:20:37.352Z,12.68
2023-04-15T11:23:08.169Z,12.96
2023-04-15T11:25:44.432Z,13.07
2023-04-15T11:28:12.541Z,12.84
2023-04-15T11:30:40.026Z,12.55
2023-04-15T11:33:09.194Z,12.31
2023-04-15T11:35:36.284Z,13.17
2023-04-15T11:38:16.811Z,13.47
2023-04-15T11:40:46.764Z,13.79
2023-04-15T11:43:20.538Z,14.21
2023-04-15T11:45:51.515Z,13.74
2023-04-15T11:48:22.162Z,14.21
2023-04-15T11:50:56.587Z,13.77
2023-04-15T11:53:24.180Z,13.38
2023-04-15T11:55:57.549Z,14.47
2023-04-15T11:58:28.474Z,14.14
2023-04-15T12:00:57.972Z,15.08
2023-04-15T12:03:42.507Z,16.18
2023-04-15T12:06:24.746Z,15.96
2023-04-15T12:08:53.285Z,14.81
2023-04-15T12:11:26.442Z,15.60
2023-04-15T12:13:58.718Z,14.89
2023-04-15T12:16:35.250Z,15.03
2023-04-15T12:19:25.958Z,14.35
2023-04-15T12:22:09.442Z,13.85
2023-04-15T12:24:37.891Z,13.50
2023-04-15T12:27:06.945Z,13.68
2023-04-15T12:29:35.509Z,13.55
2023-04-15T12:32:17.988Z,12.62
2023-04-15T12:34:50.585Z,12.25
2023-04-15T12:37:17.723Z,13.07
2023-04-15T12:39:46.005Z,13.24
2023-04-15T12:42:17.749Z,13.17
2023-04-15T12:44:45.673Z,12.56
2023-04-15T12:47:13.176Z,13.31
2023-04-15T12:49:41.017Z,13.13
2023-04-15T12:52:07.877Z,14.08
2023-04-15T12:54:34.754Z,14.01
2023-04-15T12:57:07.298Z,12.95
2023-04-15T12:59:34.776Z,13.66
2023-04-15T13:02:02.863Z,13.73
2023-04-15T13:04:31.091Z,13.52
2023-04-15T13:06:58.160Z,13.93
2023-04-15T13:09:28.572Z,13.71
2023-04-15T13:11:56.204Z,13.24
2023-04-15T13:14:22.708Z,13.88
2023-04-15T13:16:49.289Z,14.10
2023-04-15T13:19:15.909Z,13.54
2023-04-15T13:21:42.890Z,13.52
2023-04-15T13:24:09.771Z,13.29
2023-04-15T13:26:36.423Z,13.53
2023-04-15T13:29:02.964Z,13.31
2023-04-15T13:31:29.611Z,13.34
2023-04-15T13:33:57.443Z,13.51
2023-04-15T13:36:24.317Z,13.44
2023-04-15T13:38:51.646Z,13.02
2023-04-15T13:41:18.641Z,13.24
2023-04-15T13:43:45.173Z,13.18
2023-04-15T13:46:12.047Z,13.50
2023-04-15T13:48:38.772Z,13.58
2023-04-15T13:51:05.708Z,12.86
2023-04-15T13:53:38.319Z,13.23
2023-04-15T13:56:07.506Z,13.63
2023-04-15T13:58:34.317Z,13.58
2023-04-15T14:01:02.552Z,13.74
2023-04-15T14:03:30.856Z,13.75
2023-04-15T14:05:58.604Z,13.73
2023-04-15T14:08:25.751Z,12.74
2023-04-15T14:10:52.405Z,13.28
2023-04-15T14:13:19.743Z,13.38
2023-04-15T14:15:47.494Z,13.88
2023-04-15T14:18:14.080Z,13.42
2023-04-15T14:20:40.663Z,14.17
2023-04-15T14:23:07.482Z,13.37
2023-04-15T14:25:34.376Z,13.35
2023-04-15T14:28:02.415Z,13.26
2023-04-15T14:30:28.976Z,13.57
2023-04-15T14:32:56.158Z,13.74
2023-04-15T14:35:24.553Z,13.59
2023-04-15T14:37:51.269Z,13.84
2023-04-15T14:40:17.905Z,14.03
2023-04-15T14:42:45.032Z,14.15
2023-04-15T14:45:12.073Z,14.05
2023-04-15T14:47:38.704Z,13.92
2023-04-15T14:50:05.959Z,13.86
2023-04-15T14:52:38.604Z,13.80
2023-04-15T14:55:12.964Z,13.53
2023-04-15T14:57:41.267Z,14.03
2023-04-15T15:00:10.585Z,13.22
2023-04-15T15:02:40.216Z,13.24
2023-04-15T15:05:08.302Z,13.18
2023-04-15T15:07:37.400Z,13.25
2023-04-15T15:10:05.079Z,12.51
2023-04-15T15:12:32.950Z,12.47
2023-04-15T15:15:00.537Z,12.41
2023-04-15T15:17:28.259Z,12.74
2023-04-15T15:19:55.235Z,13.21
2023-04-15T15:22:21.868Z,13.29
2023-04-15T15:24:48.511Z,13.54
2023-04-15T15:27:15.140Z,13.12
2023-04-15T15:29:41.777Z,13.17
2023-04-15T15:32:08.327Z,13.44
2023-04-15T15:34:38.299Z,13.03
2023-04-15T15:37:05.507Z,13.29
2023-04-15T15:39:32.076Z,13.69
2023-04-15T15:41:58.601Z,13.42
2023-04-15T15:44:25.290Z,13.02
2023-04-15T15:46:51.948Z,13.26
2023-04-15T15:49:19.944Z,13.42
2023-04-15T15:51:46.752Z,13.34
2023-04-15T15:54:13.326Z,13.37
2023-04-15T15:56:39.906Z,14.17
2023-04-15T15:59:06.799Z,14.40
2023-04-15T16:01:33.737Z,15.22
2023-04-15T16:04:01.072Z,15.29
2023-04-15T16:06:28.295Z,15.88
2023-04-15T16:08:55.078Z,17.14
2023-04-15T16:11:21.627Z,19.10
2023-04-15T16:13:48.158Z,17.68
2023-04-15T16:16:24.463Z,17.90
2023-04-15T16:18:51.086Z,19.99
2023-04-15T16:21:17.824Z,22.60
2023-04-15T16:23:44.496Z,22.76
2023-04-15T16:26:11.049Z,23.48
2023-04-15T16:28:45.311Z,23.86
2023-04-15T16:31:12.319Z,24.64
2023-04-15T16:33:39.101Z,22.89
2023-04-15T16:36:06.311Z,19.59
2023-04-15T16:38:32.874Z,19.85
2023-04-15T16:41:08.619Z,18.94
2023-04-15T16:43:35.215Z,16.96
2023-04-15T16:46:01.857Z,15.76
2023-04-15T16:48:29.669Z,15.29
2023-04-15T16:50:57.177Z,14.29
2023-04-15T16:53:24.065Z,14.97
2023-04-15T16:55:51.182Z,14.79
2023-04-15T16:58:17.813Z,13.68
2023-04-15T17:00:44.677Z,13.59
2023-04-15T17:03:11.549Z,13.43
2023-04-15T17:05:38.330Z,13.49
2023-04-15T17:08:05.947Z,13.00
2023-04-15T17:10:32.552Z,13.23
2023-04-15T17:12:59.286Z,13.05
2023-04-15T17:15:27.261Z,13.07
2023-04-15T17:17:54.391Z,13.05
2023-04-15T17:20:21.872Z,13.01
2023-04-15T17:22:49.271Z,12.58
2023-04-15T17:25:16.003Z,12.58
2023-04-15T17:27:42.720Z,12.57
2023-04-15T17:30:09.691Z,12.84
2023-04-15T17:32:36.700Z,12.88
2023-04-15T17:35:11.179Z,12.24
2023-04-15T17:37:38.012Z,12.04
2023-04-15T17:40:08.015Z,12.11
2023-04-15T17:42:35.305Z,12.08
2023-04-15T17:45:01.872Z,11.73
2023-04-15T17:47:29.943Z,12.02
2023-04-15T17:49:58.930Z,11.79
2023-04-15T17:52:25.560Z,11.93
2023-04-15T17:54:52.125Z,11.92
2023-04-15T17:57:18.838Z,11.71
2023-04-15T17:59:47.518Z,11.57
2023-04-15T18:02:14.963Z,11.45
2023-04-15T18:04:41.830Z,11.22
2023-04-15T18:07:08.778Z,10.99
2023-04-15T18:09:36.130Z,10.96
2023-04-15T18:12:04.675Z,10.66
2023-04-15T18:14:34.669Z,10.62
2023-04-15T18:17:05.163Z,10.39
2023-04-15T18:19:32.099Z,10.36
2023-04-15T18:22:00.284Z,10.32
2023-04-15T18:24:27.523Z,10.19
2023-04-15T18:26:54.078Z,10.42
2023-04-15T18:29:20.743Z,10.49
2023-04-15T18:31:47.501Z,10.31
2023-04-15T18:34:14.067Z,10.33
2023-04-15T18:36:40.771Z,10.10
2023-04-15T18:39:07.566Z,10.26
2023-04-15T18:41:34.486Z,10.36
2023-04-15T18:44:01.124Z,10.53
2023-04-15T18:46:28.275Z,10.32
2023-04-15T18:48:54.979Z,9.96
2023-04-15T18:51:21.648Z,9.86
2023-04-15T18:53:48.322Z,9.64
2023-04-15T18:56:14.978Z,9.59
2023-04-15T18:59:22.935Z,9.51
2023-04-15T19:01:28.915Z,9.82
2023-04-15T19:03:55.537Z,9.68
2023-04-15T19:06:22.433Z,9.81
2023-04-15T19:08:49.152Z,9.76
2023-04-15T19:11:15.862Z,9.63
2023-04-15T19:13:42.425Z,9.65
2023-04-15T19:16:09.042Z,9.63
2023-04-15T19:18:35.691Z,9.89
2023-04-15T19:21:03.113Z,9.97
2023-04-15T19:23:31.452Z,9.97
2023-04-15T19:25:58.881Z,9.98
2023-04-15T19:28:28.180Z,10.12
2023-04-15T19:30:55.158Z,9.97
2023-04-15T19:33:21.815Z,9.73
2023-04-15T19:35:49.925Z,9.75
2023-04-15T19:38:17.085Z,9.68
2023-04-15T19:40:43.886Z,9.92
2023-04-15T19:43:10.443Z,9.96
2023-04-15T19:45:37.200Z,9.91
2023-04-15T19:48:06.045Z,9.93
2023-04-15T19:50:32.840Z,9.76
2023-04-15T19:52:59.427Z,9.88
2023-04-15T19:55:26.090Z,9.99
2023-04-15T19:57:52.604Z,9.96
2023-04-15T20:00:19.141Z,9.93
2023-04-15T20:02:45.758Z,9.87
2023-04-15T20:05:13.833Z,10.03
2023-04-15T20:07:42.613Z,10.07
2023-04-15T20:10:14.008Z,10.11
2023-04-15T20:12:50.242Z,9.99
2023-04-15T20:15:19.199Z,9.94
2023-04-15T20:17:45.786Z,10.03
2023-04-15T20:20:12.483Z,10.08
2023-04-15T20:22:39.031Z,10.02
2023-04-15T20:25:06.087Z,10.56
2023-04-15T20:27:32.619Z,10.48
2023-04-15T20:29:59.278Z,10.51
2023-04-15T20:32:26.986Z,10.54
2023-04-15T20:34:53.825Z,10.65
2023-04-15T20:37:20.558Z,10.45
2023-04-15T20:39:47.202Z,10.36
2023-04-15T20:42:13.745Z,10.02
2023-04-15T20:44:40.447Z,10.29
2023-04-15T20:47:07.740Z,10.44
2023-04-15T20:49:38.560Z,10.13
2023-04-15T20:52:06.512Z,9.83
2023-04-15T20:54:33.244Z,9.76
2023-04-15T20:57:00.030Z,9.60
2023-04-15T20:59:27.008Z,9.82
2023-04-15T21:01:54.168Z,9.85
2023-04-15T21:04:22.098Z,9.71
2023-04-15T21:06:48.734Z,9.76
2023-04-15T21:09:15.289Z,10.15
2023-04-15T21:11:59.789Z,9.93
2023-04-15T21:14:28.070Z,9.67
2023-04-15T21:16:54.714Z,9.55
2023-04-15T21:19:21.283Z,9.39
2023-04-15T21:21:47.833Z,9.23
2023-04-15T21:24:14.396Z,9.33
2023-04-15T21:26:41.082Z,9.26
2023-04-15T21:29:10.393Z,9.39
2023-04-15T21:31:37.859Z,9.56
2023-04-15T21:34:04.517Z,9.38
2023-04-15T21:36:31.761Z,9.55
2023-04-15T21:38:58.355Z,9.38
2023-04-15T21:41:25.188Z,9.42
2023-04-15T21:43:51.812Z,9.44
2023-04-15T21:46:23.469Z,9.29
2023-04-15T21:48:53.585Z,9.37
2023-04-15T21:51:20.388Z,9.35
2023-04-15T21:53:46.998Z,9.61
2023-04-15T21:56:13.528Z,9.32
2023-04-15T21:58:40.286Z,9.42
2023-04-15T22:01:06.878Z,9.51
2023-04-15T22:03:35.059Z,9.86
2023-04-15T22:06:04.918Z,9.85
2023-04-15T22:08:41.348Z,9.61
2023-04-15T22:11:20.906Z,9.79
2023-04-15T22:13:47.514Z,10.07
2023-04-15T22:16:14.080Z,9.70
2023-04-15T22:18:40.609Z,9.14
2023-04-15T22:21:07.956Z,9.45
2023-04-15T22:23:34.497Z,9.29
2023-04-15T22:26:01.043Z,9.54
2023-04-15T22:28:27.559Z,9.52
2023-04-15T22:30:54.707Z,9.65
2023-04-15T22:33:21.365Z,9.64
2023-04-15T22:35:47.972Z,9.24
2023-04-15T22:38:14.762Z,9.59
2023-04-15T22:40:41.554Z,9.59
2023-04-15T22:43:08.155Z,9.38
2023-04-15T22:45:34.690Z,9.49
2023-04-15T22:48:02.550Z,9.33
2023-04-15T22:50:29.207Z,9.26
2023-04-15T22:52:55.780Z,9.29
2023-04-15T22:55:22.537Z,9.10
2023-04-15T22:57:49.042Z,9.24
2023-04-15T23:00:15.614Z,9.20
2023-04-15T23:02:42.270Z,9.30
2023-04-15T23:05:12.749Z,9.28
2023-04-15T23:07:39.818Z,9.13
2023-04-15T23:10:08.114Z,9.31
2023-04-15T23:12:34.686Z,9.27
2023-04-15T23:15:01.207Z,9.26
2023-04-15T23:17:27.795Z,9.40
2023-04-15T23:19:54.398Z,9.38
2023-04-15T23:22:21.046Z,9.38
2023-04-15T23:24:47.665Z,9.37
2023-04-15T23:27:14.303Z,9.43
2023-04-15T23:29:40.894Z,9.46
2023-04-15T23:32:07.484Z,9.24
2023-04-15T23:34:34.067Z,9.27
2023-04-15T23:37:00.979Z,9.24
2023-04-15T23:39:27.668Z,9.23
2023-04-15T23:41:54.388Z,9.24
2023-04-15T23:44:20.926Z,9.33
2023-04-15T23:46:47.634Z,9.33
2023-04-15T23:49:14.358Z,9.25
2023-04-15T23:51:41.269Z,9.16
2023-04-15T23:54:07.809Z,9.29
2023-04-15T23:56:34.434Z,9.62
2023-04-15T23:59:01.015Z,9.50
